TimePST,TemperatureF,Dew PointF,Humidity,Sea Level PressureIn,VisibilityMPH,Wind Direction,Wind SpeedMPH,Gust SpeedMPH,PrecipitationIn,Events,Conditions,WindDirDegrees,DateUTC
12:53 AM,55.0,39.0,55,30.12,10.0,Calm,Calm,-,N/A,,Clear,0,2013-12-01 08:53:00
1:53 AM,55.0,37.0,51,30.12,10.0,NNW,3.5,-,N/A,,Clear,330,2013-12-01 09:53:00
2:53 AM,54.0,37.0,53,30.13,10.0,Calm,Calm,-,N/A,,Clear,0,2013-12-01 10:53:00
3:53 AM,52.0,37.0,57,30.13,10.0,Calm,Calm,-,N/A,,Clear,0,2013-12-01 11:53:00
4:53 AM,51.1,37.9,61,30.14,10.0,Calm,Calm,-,N/A,,Clear,0,2013-12-01 12:53:00
5:53 AM,50.0,37.0,61,30.15,10.0,NNW,3.5,-,N/A,,Clear,330,2013-12-01 13:53:00
6:53 AM,51.1,34.0,52,30.17,10.0,Calm,Calm,-,N/A,,Clear,0,2013-12-01 14:53:00
7:53 AM,55.0,34.0,45,30.19,10.0,West,3.5,-,N/A,,Clear,260,2013-12-01 15:53:00
8:53 AM,63.0,34.0,34,30.19,10.0,Calm,Calm,-,N/A,,Clear,0,2013-12-01 16:53:00
9:53 AM,68.0,33.1,27,30.19,10.0,Calm,Calm,-,N/A,,Clear,0,2013-12-01 17:53:00
10:53 AM,73.0,36.0,26,30.17,10.0,Calm,Calm,-,N/A,,Clear,0,2013-12-01 18:53:00
11:53 AM,75.9,34.0,22,30.12,10.0,Calm,Calm,-,N/A,,Clear,0,2013-12-01 19:53:00
12:53 PM,79.0,28.9,16,30.10,10.0,ESE,5.8,-,N/A,,Clear,120,2013-12-01 20:53:00
1:53 PM,80.1,30.9,17,30.08,10.0,ESE,6.9,-,N/A,,Clear,110,2013-12-01 21:53:00
2:53 PM,80.1,30.9,17,30.07,10.0,SE,3.5,-,N/A,,Clear,130,2013-12-01 22:53:00
3:53 PM,78.1,33.1,19,30.08,10.0,South,5.8,-,N/A,,Clear,180,2013-12-01 23:53:00
4:53 PM,73.9,35.1,24,30.09,10.0,SSE,3.5,-,N/A,,Clear,150,2013-12-02 00:53:00
5:53 PM,69.1,37.0,31,30.11,10.0,Calm,Calm,-,N/A,,Clear,0,2013-12-02 01:53:00
6:53 PM,64.0,39.0,40,30.12,10.0,Calm,Calm,-,N/A,,Clear,0,2013-12-02 02:53:00
7:53 PM,62.1,37.0,39,30.12,10.0,Calm,Calm,-,N/A,,Clear,0,2013-12-02 03:53:00
8:53 PM,62.1,34.0,35,30.13,10.0,West,6.9,-,N/A,,Clear,260,2013-12-02 04:53:00
9:53 PM,60.1,30.0,32,30.14,10.0,West,4.6,-,N/A,,Clear,260,2013-12-02 05:53:00
10:53 PM,59.0,28.0,31,30.13,10.0,SSW,4.6,-,N/A,,Clear,200,2013-12-02 06:53:00
11:53 PM,57.9,32.0,37,30.10,10.0,NNW,5.8,-,N/A,,Clear,340,2013-12-02 07:53:00